Potsdam, NY

44° 42' 44"N, 74° 57' 12"W, Elevation 460 ft.
Eastern Time

Hourly observations for the last 72 hours

Date Time Temperature (°F) Humi-
dity

(%)
Wind
(mph)
Pressure Rain (in)
Air Dew 6 Hour 1 Hr 3 Hr 6 Hr Day
Alt
(in)
Sea
Level

(mb)
Max Min
21 20:00 27.6 16.3 62 Calm 30.18 1021.9 0.00
21 19:00 27.6 16.3 30.7 26.6 62 Calm 30.19 1022.6 0.00
21 18:00 27.6 16.3 62 Calm 30.21 1023.1 0.00
21 17:00 28.0 15.1 58 Calm 30.23 1023.8 0.00
21 16:00 29.3 15.1 55 Calm 30.24 1024.1 0.00
21 15:00 29.6 16.6 58 Calm 30.27 1025.2 0.00
21 14:00 29.2 19.3 66 Calm 30.31 1026.5 0.00
21 13:00 27.6 17.7 28.7 11.9 66 Calm 30.35 1027.8 0.00
21 12:00 27.0 16.4 64 Calm 30.38 1028.9 0.00
21 11:00 25.0 14.5 64 Calm 30.41 1029.8 0.00
21 10:00 20.2 11.7 69 Calm 30.44 1030.8 0.00
21 09:00 16.2 8.1 70 Calm 30.45 1031.1 0.00
21 08:00 12.6 1.3 60 Calm 30.45 1031.3 0.00
21 07:00 12.6 1.3 12.6 12.6 60 Calm 30.46 1031.5 0.00
21 06:00 12.6 1.3 60 Calm 30.47 1031.8 0.00
21 05:00 12.6 1.3 60 Calm 30.47 1031.7 0.00
21 04:00 12.6 1.3 60 Calm 30.47 1031.8 0.00
21 03:00 12.6 1.3 60 Calm 30.48 1032.2 0.00
21 02:00 12.6 1.3 60 Calm 30.48 1032.3 0.00
21 01:00 12.6 1.3 12.6 12.6 60 Calm 30.49 1032.5 0.00
21 00:00 12.6 1.3 60 Calm 30.49 1032.5 0.00
20 23:00 12.6 1.3 60 Calm 30.50 1032.8 0.00
20 22:00 12.6 1.3 60 Calm 30.50 1033.1 0.00
20 21:00 12.6 1.3 60 Calm 30.51 1033.1 0.00
20 20:00 12.6 1.3 60 Calm 30.51 1033.1 0.00
20 19:00 12.6 1.3 16.9 12.6 60 Calm 30.51 1033.1 0.00
20 18:00 12.6 1.3 60 Calm 30.49 1032.6 0.00
20 17:00 13.8 1.0 56 Calm 30.49 1032.6 0.00
20 16:00 16.6 2.4 53 Calm 30.49 1032.4 0.00
20 15:00 16.4 3.8 57 Calm 30.48 1032.2 0.00
20 14:00 16.4 4.6 59 Calm 30.48 1032.3 0.00
20 13:00 14.6 3.2 19.7 10.1 60 Calm 30.49 1032.6 0.00
20 12:00 14.6 2.9 59 Calm 30.51 1033.4 0.00
20 11:00 14.0 4.7 66 Calm 30.52 1033.7 0.00
20 10:00 11.1 5.6 78 Calm 30.52 1033.7 0.00
20 09:00 10.3 5.4 80 Calm 30.51 1033.1 0.00
20 08:00 19.7 8.8 62 Calm 30.47 1031.9 0.00
20 07:00 19.7 8.8 19.7 19.7 62 Calm 30.44 1030.8 0.00
20 06:00 19.7 8.8 62 Calm 30.42 1030.1 0.00
20 05:00 19.7 8.8 62 Calm 30.40 1029.6 0.00
20 04:00 19.7 8.8 62 Calm 30.39 1029.2 0.00
20 03:00 19.7 8.8 62 Calm 30.39 1029.0 0.00
20 02:00 19.7 8.8 62 Calm 30.41 1029.7 0.00
20 01:00 19.7 8.8 19.7 19.7 62 Calm 30.40 1029.5 0.00
20 00:00 19.7 8.8 62 Calm 30.40 1029.3 0.00
19 23:00 19.7 8.8 62 Calm 30.40 1029.5 0.00
19 22:00 19.7 8.8 62 Calm 30.40 1029.4 0.00
19 21:00 19.7 8.8 62 Calm 30.39 1029.1 0.00
19 20:00 19.7 8.8 62 Calm 30.38 1028.7 0.00
19 19:00 19.7 8.8 27.6 19.7 62 Calm 30.37 1028.5 0.00
19 18:00 19.7 8.8 62 Calm 30.34 1027.3 0.00
19 17:00 20.6 8.5 59 Calm 30.31 1026.6 0.00
19 16:00 24.5 10.6 55 Calm 30.30 1026.1 0.00
19 15:00 24.9 11.4 56 Calm 30.29 1025.8 0.00
19 14:00 26.1 12.9 57 Calm 30.28 1025.6 0.00
19 13:00 27.6 13.1 28.5 19.7 54 Calm 30.28 1025.3 0.00
19 12:00 27.6 13.1 54 Calm 30.28 1025.3 0.00
19 11:00 26.3 14.7 61 Calm 30.27 1025.1 0.00
19 10:00 25.2 15.8 67 Calm 30.24 1024.1 0.00
19 09:00 27.1 14.3 58 Calm 30.18 1022.2 0.00
19 08:00 19.7 3.2 48 Calm 30.11 1019.6 0.00
19 07:00 19.7 3.2 19.7 19.7 48 Calm 30.07 1018.3 0.00
19 06:00 19.7 3.2 48 Calm 30.05 1017.5 0.00
19 05:00 19.7 3.2 48 Calm 30.02 1016.6 0.00
19 04:00 19.7 3.2 48 Calm 29.98 1015.4 0.00
19 03:00 19.7 3.2 48 Calm 29.97 1015.0 0.00
19 02:00 19.7 3.2 48 Calm 29.96 1014.6 0.00
19 01:00 19.7 3.2 19.7 19.7 48 Calm 29.95 1014.3 0.00
19 00:00 19.7 3.2 48 Calm 29.93 1013.4 0.00
18 23:00 19.7 3.2 48 Calm 29.90 1012.5 0.00
18 22:00 19.7 3.2 48 Calm 29.89 1012.1 0.00
18 21:00 19.7 3.2 48 Calm 29.86 1011.2 0.00

Data generated by WxSolution Version 1.9.1.5, Build 2018.05.20.